createdAt,value
2018-09-02T00:00:36.319Z,35.53
2018-09-02T00:03:05.521Z,35.70
2018-09-02T00:05:34.134Z,36.42
2018-09-02T00:08:03.502Z,36.57
2018-09-02T00:10:32.174Z,35.78
2018-09-02T00:13:00.548Z,35.78
2018-09-02T00:15:29.075Z,36.27
2018-09-02T00:17:57.476Z,35.75
2018-09-02T00:20:25.896Z,36.53
2018-09-02T00:22:54.924Z,37.01
2018-09-02T00:25:23.303Z,36.99
2018-09-02T00:27:51.703Z,37.24
2018-09-02T00:30:20.114Z,36.57
2018-09-02T00:32:48.496Z,36.99
2018-09-02T00:35:16.849Z,37.20
2018-09-02T00:37:45.210Z,37.23
2018-09-02T00:40:13.558Z,37.66
2018-09-02T00:42:42.118Z,37.85
2018-09-02T00:45:10.498Z,38.11
2018-09-02T00:47:39.146Z,39.07
2018-09-02T00:50:08.438Z,38.86
2018-09-02T00:52:37.288Z,39.56
2018-09-02T00:55:05.813Z,39.20
2018-09-02T00:57:34.184Z,39.71
2018-09-02T01:00:03.320Z,39.16
2018-09-02T01:02:31.948Z,38.90
2018-09-02T01:05:00.294Z,40.44
2018-09-02T01:07:28.983Z,40.06
2018-09-02T01:09:57.344Z,39.77
2018-09-02T01:12:25.764Z,41.01
2018-09-02T01:14:54.118Z,41.16
2018-09-02T01:17:22.563Z,41.29
2018-09-02T01:19:51.063Z,41.52
2018-09-02T01:22:19.539Z,41.67
2018-09-02T01:24:48.475Z,41.90
2018-09-02T01:27:16.822Z,41.61
2018-09-02T01:29:45.179Z,40.57
2018-09-02T01:32:14.455Z,40.82
2018-09-02T01:34:42.836Z,40.83
2018-09-02T01:37:11.756Z,40.52
2018-09-02T01:39:40.156Z,40.76
2018-09-02T01:42:08.537Z,40.30
2018-09-02T01:44:36.918Z,39.67
2018-09-02T01:47:05.660Z,39.82
2018-09-02T01:49:34.065Z,39.95
2018-09-02T01:52:02.701Z,39.06
2018-09-02T01:54:31.076Z,40.10
2018-09-02T01:56:59.542Z,39.95
2018-09-02T01:59:27.963Z,39.82
2018-09-02T02:01:56.325Z,39.91
2018-09-02T02:04:27.261Z,39.76
2018-09-02T02:06:55.635Z,40.21
2018-09-02T02:09:24.209Z,40.15
2018-09-02T02:11:52.609Z,40.20
2018-09-02T02:14:20.964Z,39.36
2018-09-02T02:16:49.349Z,39.19
2018-09-02T02:19:17.921Z,39.64
2018-09-02T02:21:46.330Z,39.41
2018-09-02T02:24:14.708Z,39.73
2018-09-02T02:26:44.165Z,38.78
2018-09-02T02:29:12.873Z,39.23
2018-09-02T02:31:41.324Z,39.73
2018-09-02T02:34:09.732Z,39.89
2018-09-02T02:36:38.241Z,38.84
2018-09-02T02:39:08.909Z,39.56
2018-09-02T02:41:37.433Z,39.78
2018-09-02T02:44:06.006Z,40.15
2018-09-02T02:46:34.673Z,40.04
2018-09-02T02:49:03.317Z,41.04
2018-09-02T02:51:31.777Z,41.87
2018-09-02T02:54:00.303Z,41.45
2018-09-02T02:56:28.739Z,42.33
2018-09-02T02:58:57.110Z,42.21
2018-09-02T03:01:25.423Z,41.92
2018-09-02T03:03:54.497Z,41.78
2018-09-02T03:12:21.696Z,45.34
2018-09-02T03:14:50.131Z,45.31
2018-09-02T03:17:18.582Z,44.62
2018-09-02T03:19:47.569Z,45.78
2018-09-02T03:22:16.234Z,46.18
2018-09-02T03:24:44.689Z,47.06
2018-09-02T03:27:13.170Z,46.60
2018-09-02T03:29:41.627Z,47.11
2018-09-02T03:32:10.051Z,46.96
2018-09-02T03:34:38.516Z,46.24
2018-09-02T03:37:07.409Z,47.13
2018-09-02T03:39:36.092Z,46.06
2018-09-02T03:42:04.526Z,47.06
2018-09-02T03:44:32.936Z,46.74
2018-09-02T03:47:01.566Z,47.18
2018-09-02T03:49:29.958Z,46.85
2018-09-02T03:51:58.379Z,47.06
2018-09-02T03:54:26.926Z,46.90
2018-09-02T03:56:55.554Z,46.51
2018-09-02T03:59:24.005Z,48.14
2018-09-02T04:01:52.407Z,47.89
2018-09-02T04:04:20.831Z,48.23
2018-09-02T04:06:49.294Z,48.07
2018-09-02T04:09:17.709Z,49.27
2018-09-02T04:11:46.211Z,48.74
2018-09-02T04:14:14.869Z,48.75
2018-09-02T04:16:43.573Z,48.43
2018-09-02T04:19:12.025Z,48.32
2018-09-02T04:21:40.671Z,48.22
2018-09-02T04:24:09.108Z,48.70
2018-09-02T04:26:37.645Z,48.69
2018-09-02T04:29:06.088Z,49.09
2018-09-02T04:31:34.493Z,48.95
2018-09-02T04:34:02.873Z,48.21
2018-09-02T04:36:31.247Z,48.90
2018-09-02T04:38:59.617Z,47.23
2018-09-02T04:41:28.150Z,48.44
2018-09-02T04:43:56.622Z,48.83
2018-09-02T04:46:25.074Z,48.22
2018-09-02T04:48:53.497Z,49.44
2018-09-02T04:51:21.799Z,48.78
2018-09-02T04:53:50.177Z,49.28
2018-09-02T04:56:18.617Z,48.84
2018-09-02T04:58:46.985Z,48.56
2018-09-02T05:01:15.402Z,47.71
2018-09-02T05:03:43.804Z,49.15
2018-09-02T05:06:13.375Z,48.92
2018-09-02T05:08:41.753Z,49.59
2018-09-02T05:11:10.159Z,48.73
2018-09-02T05:13:38.653Z,48.77
2018-09-02T05:16:07.084Z,49.40
2018-09-02T05:18:35.787Z,49.77
2018-09-02T05:21:04.268Z,50.31
2018-09-02T05:23:32.766Z,51.42
2018-09-02T05:26:01.305Z,51.31
2018-09-02T05:28:29.658Z,50.56
2018-09-02T05:30:58.205Z,49.42
2018-09-02T05:33:26.557Z,50.40
2018-09-02T05:35:54.970Z,50.96
2018-09-02T05:38:23.509Z,51.40
2018-09-02T05:40:51.912Z,51.02
2018-09-02T05:43:20.429Z,50.80
2018-09-02T05:45:48.763Z,50.92
2018-09-02T05:48:17.159Z,50.30
2018-09-02T05:50:45.565Z,50.64
2018-09-02T05:53:14.014Z,50.05
2018-09-02T05:55:42.504Z,49.94
2018-09-02T05:58:10.876Z,49.58
2018-09-02T06:00:40.270Z,50.70
2018-09-02T06:03:08.711Z,50.28
2018-09-02T06:05:37.183Z,50.42
2018-09-02T06:08:05.671Z,50.24
2018-09-02T06:10:34.292Z,49.24
2018-09-02T06:13:02.694Z,49.55
2018-09-02T06:15:31.104Z,48.38
2018-09-02T06:17:59.523Z,48.15
2018-09-02T06:20:28.106Z,48.52
2018-09-02T06:22:56.492Z,48.81
2018-09-02T06:25:25.186Z,48.74
2018-09-02T06:27:53.560Z,48.38
2018-09-02T06:30:22.351Z,47.91
2018-09-02T06:32:50.842Z,47.67
2018-09-02T06:35:19.314Z,47.96
2018-09-02T06:37:47.878Z,46.82
2018-09-02T06:40:16.950Z,46.68
2018-09-02T06:42:45.375Z,47.45
2018-09-02T06:45:13.837Z,46.52
2018-09-02T06:52:29.907Z,47.19
2018-09-02T06:54:58.375Z,47.13
2018-09-02T06:57:26.782Z,45.66
2018-09-02T06:59:55.212Z,46.27
2018-09-02T07:02:23.718Z,46.90
2018-09-02T07:04:52.161Z,46.86
2018-09-02T07:07:21.356Z,46.94
2018-09-02T07:09:49.724Z,46.61
2018-09-02T07:12:18.210Z,47.27
2018-09-02T07:14:46.602Z,46.69
2018-09-02T07:17:15.087Z,46.46
2018-09-02T07:19:43.686Z,47.20
2018-09-02T07:22:12.114Z,47.69
2018-09-02T07:24:41.455Z,48.06
2018-09-02T07:27:09.942Z,47.63
2018-09-02T07:29:38.413Z,47.18
2018-09-02T07:32:07.484Z,48.44
2018-09-02T07:34:35.951Z,47.54
2018-09-02T07:37:04.438Z,46.83
2018-09-02T07:39:32.797Z,45.74
2018-09-02T07:42:01.210Z,45.72
2018-09-02T07:44:29.666Z,44.73
2018-09-02T07:46:58.170Z,46.14
2018-09-02T07:49:26.582Z,44.70
2018-09-02T07:51:55.077Z,45.24
2018-09-02T07:54:23.479Z,44.00
2018-09-02T07:56:52.330Z,43.39
2018-09-02T07:59:20.783Z,44.09
2018-09-02T08:01:49.142Z,44.94
2018-09-02T08:04:17.717Z,44.15
2018-09-02T08:06:46.071Z,44.62
2018-09-02T08:09:14.456Z,43.95
2018-09-02T08:11:42.838Z,45.16
2018-09-02T08:14:11.216Z,43.54
2018-09-02T08:16:40.184Z,44.50
2018-09-02T08:19:08.936Z,45.07
2018-09-02T08:21:37.491Z,45.54
2018-09-02T08:24:05.938Z,45.75
2018-09-02T08:26:35.275Z,43.44
2018-09-02T08:29:03.719Z,44.89
2018-09-02T08:31:32.092Z,45.90
2018-09-02T08:34:00.514Z,46.00
2018-09-02T08:36:29.052Z,45.04
2018-09-02T08:38:57.461Z,46.40
2018-09-02T08:41:25.984Z,42.54
2018-09-02T08:43:54.595Z,44.49
2018-09-02T08:46:23.230Z,44.04
2018-09-02T08:48:51.771Z,42.19
2018-09-02T08:51:20.144Z,44.17
2018-09-02T08:53:48.555Z,43.65
2018-09-02T08:56:16.940Z,43.50
2018-09-02T08:58:45.314Z,44.00
2018-09-02T09:01:13.808Z,42.65
2018-09-02T09:03:42.204Z,43.83
2018-09-02T09:06:10.615Z,42.93
2018-09-02T09:08:39.441Z,44.02
2018-09-02T09:11:08.841Z,42.79
2018-09-02T09:13:37.507Z,43.84
2018-09-02T09:16:05.998Z,44.18
2018-09-02T09:18:35.514Z,43.22
2018-09-02T09:21:04.000Z,42.14
2018-09-02T09:23:32.545Z,43.80
2018-09-02T09:26:01.392Z,42.78
2018-09-02T09:28:29.928Z,41.16
2018-09-02T09:30:58.375Z,43.12
2018-09-02T09:33:27.080Z,43.05
2018-09-02T09:35:56.108Z,44.58
2018-09-02T09:38:24.584Z,45.01
2018-09-02T09:40:53.142Z,45.27
2018-09-02T09:43:21.727Z,44.49
2018-09-02T09:45:50.909Z,43.02
2018-09-02T09:48:19.877Z,43.34
2018-09-02T09:50:48.656Z,43.87
2018-09-02T09:53:17.796Z,43.75
2018-09-02T09:55:46.249Z,42.62
2018-09-02T09:58:15.086Z,43.82
2018-09-02T10:00:50.925Z,43.13
2018-09-02T10:03:20.160Z,41.68
2018-09-02T10:05:48.925Z,42.31
2018-09-02T10:08:17.725Z,41.42
2018-09-02T10:10:46.388Z,41.32
2018-09-02T10:13:14.988Z,42.30
2018-09-02T10:15:43.702Z,41.15
2018-09-02T10:18:13.334Z,41.13
2018-09-02T10:20:41.918Z,41.23
2018-09-02T10:23:10.443Z,40.91
2018-09-02T10:25:39.789Z,41.39
2018-09-02T10:28:08.432Z,41.40
2018-09-02T10:30:38.131Z,41.38
2018-09-02T10:33:07.332Z,42.52
2018-09-02T10:35:36.025Z,43.57
2018-09-02T10:38:04.975Z,43.54
2018-09-02T10:40:34.111Z,43.16
2018-09-02T10:43:03.707Z,43.73
2018-09-02T10:45:32.212Z,43.63
2018-09-02T10:48:01.008Z,43.35
2018-09-02T10:50:29.602Z,44.08
2018-09-02T10:52:59.870Z,44.81
2018-09-02T10:55:28.289Z,44.31
2018-09-02T10:57:57.254Z,44.38
2018-09-02T11:00:32.316Z,44.87
2018-09-02T11:03:00.796Z,44.42
2018-09-02T11:05:29.267Z,43.40
2018-09-02T11:07:57.687Z,42.44
2018-09-02T11:10:26.118Z,43.07
2018-09-02T11:12:54.547Z,44.12
2018-09-02T11:15:23.117Z,43.24
2018-09-02T11:17:51.628Z,41.57
2018-09-02T11:20:20.183Z,44.06
2018-09-02T11:22:48.588Z,43.65
2018-09-02T11:25:16.928Z,43.86
2018-09-02T11:27:45.365Z,42.62
2018-09-02T11:30:13.775Z,43.50
2018-09-02T11:32:42.271Z,42.88
2018-09-02T11:35:10.832Z,44.43
2018-09-02T11:37:39.413Z,43.98
2018-09-02T11:40:07.853Z,44.80
2018-09-02T11:42:36.577Z,42.31
2018-09-02T11:45:05.147Z,44.62
2018-09-02T11:47:33.522Z,44.54
2018-09-02T11:50:01.919Z,44.57
2018-09-02T11:52:30.556Z,44.75
2018-09-02T11:54:59.027Z,45.08
2018-09-02T11:57:28.253Z,45.38
2018-09-02T11:59:57.302Z,45.78
2018-09-02T12:02:25.760Z,46.09
2018-09-02T12:04:54.257Z,45.04
2018-09-02T12:07:22.572Z,44.80
2018-09-02T12:09:51.194Z,45.45
2018-09-02T12:12:19.589Z,45.31
2018-09-02T12:14:48.002Z,46.29
2018-09-02T12:17:16.389Z,46.27
2018-09-02T12:19:44.907Z,45.06
2018-09-02T12:22:13.417Z,46.31
2018-09-02T12:24:41.769Z,46.09
2018-09-02T12:27:10.342Z,46.53
2018-09-02T12:29:38.752Z,46.73
2018-09-02T12:32:07.267Z,46.29
2018-09-02T12:34:35.852Z,46.67
2018-09-02T12:37:04.331Z,46.65
2018-09-02T12:39:32.800Z,46.87
2018-09-02T12:42:01.153Z,46.31
2018-09-02T12:44:29.599Z,47.11
2018-09-02T12:46:58.063Z,44.94
2018-09-02T12:49:26.455Z,47.00
2018-09-02T12:51:54.971Z,46.67
2018-09-02T12:54:23.652Z,45.83
2018-09-02T12:56:51.967Z,45.35
2018-09-02T12:59:20.486Z,46.53
2018-09-02T13:01:49.032Z,46.05
2018-09-02T13:04:17.667Z,47.57
2018-09-02T13:06:46.985Z,47.40
2018-09-02T13:09:15.416Z,46.76
2018-09-02T13:11:44.145Z,45.78
2018-09-02T13:14:12.855Z,47.07
2018-09-02T13:16:41.508Z,46.68
2018-09-02T13:19:10.053Z,46.00
2018-09-02T13:21:38.490Z,46.28
2018-09-02T13:24:07.041Z,46.93
2018-09-02T13:26:35.491Z,46.45
2018-09-02T13:29:05.373Z,46.55
2018-09-02T13:31:33.809Z,46.94
2018-09-02T13:34:02.223Z,47.37
2018-09-02T13:36:30.642Z,47.35
2018-09-02T13:38:58.948Z,45.68
2018-09-02T13:41:27.334Z,43.81
2018-09-02T13:43:55.756Z,46.85
2018-09-02T13:46:24.805Z,46.48
2018-09-02T13:48:53.278Z,46.14
2018-09-02T13:51:21.973Z,47.05
2018-09-02T13:53:50.319Z,46.55
2018-09-02T13:56:18.802Z,46.67
2018-09-02T13:58:47.261Z,46.43
2018-09-02T14:01:16.512Z,45.73
2018-09-02T14:03:44.966Z,46.64
2018-09-02T14:06:14.364Z,46.40
2018-09-02T14:08:42.788Z,45.87
2018-09-02T14:11:11.360Z,46.92
2018-09-02T14:13:39.784Z,47.19
2018-09-02T14:16:08.146Z,47.29
2018-09-02T14:18:36.909Z,47.20
2018-09-02T14:21:06.107Z,47.93
2018-09-02T14:23:34.850Z,47.78
2018-09-02T14:26:03.391Z,47.90
2018-09-02T14:28:33.070Z,47.56
2018-09-02T14:31:01.451Z,47.36
2018-09-02T14:33:29.849Z,46.07
2018-09-02T14:35:58.398Z,47.58
2018-09-02T14:38:26.790Z,47.44
2018-09-02T14:40:55.578Z,47.43
2018-09-02T14:43:24.143Z,47.84
2018-09-02T14:45:52.555Z,46.90
2018-09-02T14:48:21.147Z,46.95
2018-09-02T14:50:49.627Z,47.54
2018-09-02T14:53:17.995Z,48.26
2018-09-02T14:55:46.377Z,47.79
2018-09-02T14:58:14.821Z,47.96
2018-09-02T15:00:43.335Z,47.45
2018-09-02T15:03:11.740Z,48.37
2018-09-02T15:05:40.313Z,43.77
2018-09-02T15:08:08.718Z,47.00
2018-09-02T15:10:37.219Z,45.81
2018-09-02T15:13:05.599Z,48.25
2018-09-02T15:15:33.969Z,47.36
2018-09-02T15:18:02.365Z,48.16
2018-09-02T15:20:30.885Z,47.44
2018-09-02T15:22:59.724Z,48.24
2018-09-02T15:25:28.773Z,47.87
2018-09-02T15:27:58.203Z,48.43
2018-09-02T15:30:27.888Z,47.48
2018-09-02T15:32:56.806Z,48.98
2018-09-02T15:35:26.306Z,48.79
2018-09-02T15:37:55.385Z,48.47
2018-09-02T15:40:24.463Z,49.65
2018-09-02T15:42:53.537Z,49.50
2018-09-02T15:45:23.189Z,49.63
2018-09-02T15:47:52.324Z,48.98
2018-09-02T15:50:21.354Z,48.99
2018-09-02T15:52:50.260Z,49.63
2018-09-02T15:55:19.382Z,50.22
2018-09-02T15:57:48.543Z,49.27
2018-09-02T16:00:17.567Z,50.22
2018-09-02T16:02:46.561Z,49.44
2018-09-02T16:05:15.640Z,49.69
2018-09-02T16:07:44.513Z,50.07
2018-09-02T16:10:13.391Z,49.39
2018-09-02T16:12:42.830Z,49.74
2018-09-02T16:15:11.835Z,49.62
2018-09-02T16:17:41.004Z,49.92
2018-09-02T16:20:10.361Z,50.00
2018-09-02T16:22:39.282Z,49.86
2018-09-02T16:25:08.400Z,50.07
2018-09-02T16:27:37.498Z,49.59
2018-09-02T16:30:06.998Z,49.70
2018-09-02T16:32:35.962Z,50.75
2018-09-02T16:35:05.579Z,49.96
2018-09-02T16:37:34.647Z,50.75
2018-09-02T16:40:03.909Z,50.96
2018-09-02T16:42:32.972Z,51.13
2018-09-02T16:45:02.474Z,51.11
2018-09-02T16:47:31.777Z,51.12
2018-09-02T16:50:00.709Z,50.55
2018-09-02T16:52:29.780Z,50.91
2018-09-02T16:54:58.556Z,50.85
2018-09-02T16:57:27.564Z,51.36
2018-09-02T16:59:56.508Z,50.94
2018-09-02T17:02:25.844Z,50.98
2018-09-02T17:04:59.639Z,51.50
2018-09-02T17:07:28.743Z,51.80
2018-09-02T17:09:57.550Z,50.88
2018-09-02T17:12:26.613Z,51.96
2018-09-02T17:14:55.773Z,51.39
2018-09-02T17:17:24.780Z,52.34
2018-09-02T17:19:56.351Z,50.54
2018-09-02T17:22:25.306Z,51.87
2018-09-02T17:24:54.412Z,51.53
2018-09-02T17:27:23.326Z,51.77
2018-09-02T17:29:52.317Z,51.63
2018-09-02T17:32:22.508Z,52.31
2018-09-02T17:34:52.642Z,52.25
2018-09-02T17:37:21.585Z,51.92
2018-09-02T17:39:50.483Z,51.37
2018-09-02T17:42:19.470Z,52.51
2018-09-02T17:44:48.448Z,51.47
2018-09-02T17:47:17.465Z,52.04
2018-09-02T17:49:46.424Z,52.63
2018-09-02T17:52:16.202Z,52.21
2018-09-02T17:54:45.468Z,52.30
2018-09-02T17:57:14.545Z,51.57
2018-09-02T17:59:44.774Z,52.22
2018-09-02T18:02:13.714Z,52.61
2018-09-02T18:04:42.656Z,52.74
2018-09-02T18:07:11.665Z,52.40
2018-09-02T18:09:40.877Z,52.27
2018-09-02T18:12:09.985Z,52.26
2018-09-02T18:14:39.039Z,52.16
2018-09-02T18:17:08.614Z,50.70
2018-09-02T18:19:37.638Z,51.80
2018-09-02T18:22:07.265Z,52.05
2018-09-02T18:24:36.285Z,52.68
2018-09-02T18:27:05.507Z,52.44
2018-09-02T18:29:34.675Z,52.73
2018-09-02T18:32:04.007Z,52.66
2018-09-02T18:34:33.583Z,52.87
2018-09-02T18:37:02.706Z,52.78
2018-09-02T18:39:31.864Z,52.66
2018-09-02T18:42:00.926Z,52.31
2018-09-02T18:44:30.012Z,52.34
2018-09-02T18:46:59.354Z,52.00
2018-09-02T18:49:28.384Z,52.29
2018-09-02T18:51:57.795Z,52.45
2018-09-02T18:54:27.434Z,53.11
2018-09-02T18:56:57.777Z,52.93
2018-09-02T18:59:27.347Z,52.70
2018-09-02T19:01:57.390Z,52.40
2018-09-02T19:04:26.222Z,52.96
2018-09-02T19:06:56.050Z,53.38
2018-09-02T19:09:25.063Z,52.97
2018-09-02T19:11:54.650Z,53.38
2018-09-02T19:14:24.724Z,52.92
2018-09-02T19:16:53.838Z,51.56
2018-09-02T19:19:23.118Z,53.22
2018-09-02T19:21:53.145Z,53.32
2018-09-02T19:24:22.235Z,53.41
2018-09-02T19:26:51.229Z,53.38
2018-09-02T19:29:20.265Z,53.32
2018-09-02T19:31:49.514Z,53.91
2018-09-02T19:34:18.456Z,53.58
2018-09-02T19:36:47.274Z,53.33
2018-09-02T19:39:16.452Z,53.09
2018-09-02T19:41:47.156Z,53.93
2018-09-02T19:44:16.315Z,52.37
2018-09-02T19:46:45.809Z,52.34
2018-09-02T19:49:14.607Z,52.78
2018-09-02T19:51:43.989Z,52.81
2018-09-02T19:54:13.445Z,52.92
2018-09-02T19:56:42.554Z,53.18
2018-09-02T19:59:11.555Z,53.22
2018-09-02T20:01:40.583Z,53.34
2018-09-02T20:04:10.063Z,53.65
2018-09-02T20:06:39.830Z,52.99
2018-09-02T20:09:11.576Z,52.99
2018-09-02T20:11:40.661Z,54.63
2018-09-02T20:14:10.134Z,53.78
2018-09-02T20:16:39.281Z,53.44
2018-09-02T20:19:08.402Z,54.19
2018-09-02T20:21:37.598Z,53.51
2018-09-02T20:24:06.639Z,54.26
2018-09-02T20:26:36.472Z,54.29
2018-09-02T20:29:05.281Z,53.02
2018-09-02T20:31:34.434Z,52.01
2018-09-02T20:34:03.519Z,52.58
2018-09-02T20:36:32.450Z,53.43
2018-09-02T20:39:01.452Z,53.82
2018-09-02T20:41:30.420Z,53.63
2018-09-02T20:43:59.354Z,53.64
2018-09-02T20:46:28.528Z,53.20
2018-09-02T20:48:57.683Z,53.01
2018-09-02T20:51:26.629Z,52.92
2018-09-02T20:53:55.615Z,52.95
2018-09-02T20:56:25.033Z,52.88
2018-09-02T20:58:54.065Z,52.26
2018-09-02T21:01:23.156Z,52.34
2018-09-02T21:03:52.753Z,53.44
2018-09-02T21:06:21.808Z,53.13
2018-09-02T21:08:50.755Z,53.46
2018-09-02T21:11:19.964Z,53.48
2018-09-02T21:13:49.115Z,53.37
2018-09-02T21:16:18.493Z,53.28
2018-09-02T21:18:47.516Z,53.13
2018-09-02T21:21:17.545Z,53.84
2018-09-02T21:23:46.654Z,52.84
2018-09-02T21:26:16.123Z,53.55
2018-09-02T21:28:45.732Z,52.92
2018-09-02T21:31:15.110Z,53.03
2018-09-02T21:33:44.051Z,52.77
2018-09-02T21:36:12.971Z,53.35
2018-09-02T21:38:41.903Z,53.21
2018-09-02T21:41:11.087Z,53.42
2018-09-02T21:43:40.478Z,52.73
2018-09-02T21:46:09.928Z,52.92
2018-09-02T21:48:39.205Z,54.75
2018-09-02T21:51:08.365Z,53.85
2018-09-02T21:53:38.178Z,53.29
2018-09-02T21:56:07.283Z,54.02
2018-09-02T21:58:36.585Z,53.70
2018-09-02T22:01:05.604Z,53.69
2018-09-02T22:03:34.757Z,52.96
2018-09-02T22:06:03.524Z,53.55
2018-09-02T22:08:32.329Z,52.62
2018-09-02T22:11:01.805Z,53.57
2018-09-02T22:13:30.781Z,54.36
2018-09-02T22:15:59.599Z,53.28
2018-09-02T22:18:28.734Z,53.40
2018-09-02T22:20:58.551Z,53.14
2018-09-02T22:23:28.437Z,53.57
2018-09-02T22:25:57.319Z,52.08
2018-09-02T22:28:26.452Z,53.42
2018-09-02T22:30:55.377Z,53.52
2018-09-02T22:33:24.411Z,53.30
2018-09-02T22:35:53.358Z,53.79
2018-09-02T22:38:22.565Z,53.99
2018-09-02T22:40:51.726Z,52.49
2018-09-02T22:43:20.818Z,53.23
2018-09-02T22:45:49.587Z,53.26
2018-09-02T22:48:18.552Z,53.50
2018-09-02T22:50:47.799Z,52.88
2018-09-02T22:53:17.051Z,53.10
2018-09-02T22:55:46.055Z,53.57
2018-09-02T22:58:15.122Z,52.99
2018-09-02T23:00:44.772Z,53.43
2018-09-02T23:03:13.912Z,53.48
2018-09-02T23:05:43.400Z,54.30
2018-09-02T23:08:12.389Z,53.60
2018-09-02T23:10:41.420Z,53.14
2018-09-02T23:13:10.593Z,52.28
2018-09-02T23:15:40.403Z,52.98
2018-09-02T23:18:09.444Z,53.67
2018-09-02T23:20:38.312Z,53.52
2018-09-02T23:23:07.140Z,53.65
2018-09-02T23:25:36.066Z,52.66
2018-09-02T23:28:05.326Z,52.78
2018-09-02T23:30:34.298Z,53.03
2018-09-02T23:33:03.246Z,53.25
2018-09-02T23:35:32.257Z,52.76
2018-09-02T23:38:01.223Z,53.53
2018-09-02T23:40:30.211Z,52.79
2018-09-02T23:42:59.110Z,53.39
2018-09-02T23:45:28.076Z,54.37
2018-09-02T23:47:57.095Z,53.83
2018-09-02T23:50:27.158Z,54.39
2018-09-02T23:52:56.087Z,54.48
2018-09-02T23:55:25.220Z,53.33
2018-09-02T23:57:54.772Z,52.73
